Tropical Cyclones
[Index]
Main Index Home Page Stock Weather Photos Extreme Storms Discussion Storm News and Storm Chasing Reports Tropical Cyclones / Hurricanes / Typhoons Weather Data and Links Wild Fires / Bushfires Weather Observation Techniques Weather Picture Catalogue Tornado Pictures and Reports Stock Video Footage and DVDs for sale
Season 1955-1956 Tropical Cyclone 195612 Track Map
Season 1955-1956 Summaries: [BoM-AU] [JTWC-AU] [JTWC-SIO] [JTWC-SPAC] [JTWC-SH]
<<- Previous TC | JTWC 1955-1956 Season | Next TC ->>

click for intensity scale information  Lat/long Grid: Show Hide

 Date Labels: Show Hide

Joint Typhoon Warning Centre Cyclone Data

Name: 195612
Number: 254 / 5612

19 Jan 1956 06:00 UTC to 31 Jan 1956 06:00 UTC

    date/time    lat    long     hPa   cat  kts
1956-01-19 06   13.5    59.0                              
1956-01-19 12   13.5    59.3                              
1956-01-19 18   13.6    59.6                              
1956-01-20 00   13.6    59.9                              
1956-01-20 06   13.7    60.2                              
1956-01-20 12   13.9    60.7                              
1956-01-20 18   14.3    61.2                              
1956-01-21 00   14.7    61.7                              
1956-01-21 06   15.0    62.1                              
1956-01-21 12   15.2    62.4                              
1956-01-21 18   15.3    62.7                              
1956-01-22 00   15.6    63.0                              
1956-01-22 06   15.9    63.0                              
1956-01-22 12   16.0    62.5                              
1956-01-22 18   16.0    62.0                              
1956-01-23 00   16.0    61.5                              
1956-01-23 06   15.9    61.0                              
1956-01-23 12   15.8    60.3                              
1956-01-23 18   15.8    59.3                              
1956-01-24 00   15.8    58.2                              
1956-01-24 06   15.8    57.2                              
1956-01-24 12   15.8    56.2                              
1956-01-24 18   15.8    55.3                              
1956-01-25 00   15.9    54.3                              
1956-01-25 06   16.0    53.3                              
1956-01-25 12   16.2    52.0                              
1956-01-25 18   16.6    50.6                              
1956-01-26 00   17.1    49.4                              
1956-01-26 06   17.5    48.2                              
1956-01-26 12   17.9    47.0                              
1956-01-26 18   18.3    45.7                              
1956-01-27 00   18.7    44.5                              
1956-01-27 06   19.0    43.2                              
1956-01-27 12   19.4    42.3                              
1956-01-27 18   19.8    41.7                              
1956-01-28 00   20.4    41.0                              
1956-01-28 06   21.0    40.5                              
1956-01-28 12   21.5    40.3                              
1956-01-28 18   22.0    40.2                              
1956-01-29 00   22.4    40.2                              
1956-01-29 06   22.9    40.2                              
1956-01-29 12   23.7    40.1                              
1956-01-29 18   24.5    39.9                              
1956-01-30 00   25.2    39.7                              
1956-01-30 06   26.0    39.3                              
1956-01-30 12   27.0    38.7                              
1956-01-30 18   28.0    37.9                              
1956-01-31 00   28.9    37.0                              
1956-01-31 06   29.7    36.1                              
Winds are 1-min average.

Tropical cyclone tracks developed by Michael Bath using data from the Joint Typhoon Warning Centre Best Tracks and Google Maps.


[Australian Severe Weather index] [Copyright Notice] [Email Contacts] [Search This Site] [Privacy Policy]
Document: tropical_cyclone_195612.htm Updated: 18 September 2016